Time;durP1;ratioP1;P1;durP2;ratioP2;P2;SDS_P1;SDS_P2;PMS_P1;PMS_P2;Temp;Humidity;BMP_temperature;BMP_pressure;BME280_temperature;BME280_humidity;BME280_pressure;Samples;Min_cycle;Max_cycle;Signal;HPM_P1;HPM_P2
2023/02/23 00:02:06;;;;;;;11.10;6.30;;;5.70;99.90;;;;;;5058359;28;25063;-74
2023/02/23 00:04:38;;;;;;;13.70;5.60;;;5.70;99.90;;;;;;5040829;28;25071;-74
2023/02/23 00:07:06;;;;;;;11.13;6.20;;;5.70;99.90;;;;;;5058730;28;25069;-74
2023/02/23 00:09:36;;;;;;;13.25;6.85;;;5.70;99.90;;;;;;5058776;28;25058;-75
2023/02/23 00:12:08;;;;;;;14.05;6.80;;;5.70;99.90;;;;;;5058482;28;25085;-74
2023/02/23 00:14:39;;;;;;;14.43;8.23;;;5.70;99.90;;;;;;5040574;28;25074;-74
2023/02/23 00:17:13;;;;;;;20.40;10.38;;;5.70;99.90;;;;;;5058620;28;25057;-74
2023/02/23 00:19:42;;;;;;;16.60;8.77;;;5.80;99.90;;;;;;5058319;28;25092;-74
2023/02/23 00:22:09;;;;;;;14.77;6.68;;;5.80;99.90;;;;;;5057870;28;25084;-74
2023/02/23 00:24:37;;;;;;;11.38;6.50;;;5.80;99.90;;;;;;5058187;28;25068;-74
2023/02/23 00:27:05;;;;;;;14.57;8.48;;;5.80;99.90;;;;;;5040344;28;25124;-74
2023/02/23 00:29:38;;;;;;;14.25;8.07;;;5.80;99.90;;;;;;5057948;28;25072;-74
2023/02/23 00:32:06;;;;;;;13.90;7.30;;;5.80;99.90;;;;;;5057757;28;25105;-74
2023/02/23 00:34:35;;;;;;;12.88;7.50;;;5.80;99.90;;;;;;5039473;28;25073;-74
2023/02/23 00:37:03;;;;;;;11.55;6.45;;;5.70;99.90;;;;;;5039930;28;25130;-74
2023/02/23 00:39:30;;;;;;;15.70;7.68;;;5.70;99.90;;;;;;5058240;28;25087;-74
2023/02/23 00:42:01;;;;;;;16.30;8.30;;;5.70;99.90;;;;;;5056917;28;25056;-74
2023/02/23 00:44:29;;;;;;;14.25;7.80;;;5.70;99.90;;;;;;5040038;28;25116;-74
2023/02/23 00:46:57;;;;;;;16.20;9.60;;;5.70;99.90;;;;;;5039723;28;25073;-74
2023/02/23 00:49:24;;;;;;;18.10;10.70;;;5.70;99.90;;;;;;5039322;28;25117;-74
2023/02/23 00:51:51;;;;;;;22.08;9.75;;;5.70;99.90;;;;;;5057651;28;25056;-74
2023/02/23 00:54:22;;;;;;;14.73;9.13;;;5.80;99.90;;;;;;5039732;28;25065;-74
2023/02/23 00:56:50;;;;;;;16.50;8.25;;;5.80;99.90;;;;;;5039614;28;25128;-74
2023/02/23 00:59:18;;;;;;;14.60;7.53;;;5.80;99.90;;;;;;5057142;28;25068;-74
2023/02/23 01:01:45;;;;;;;19.42;9.52;;;5.70;99.90;;;;;;5039477;28;25072;-74
2023/02/23 01:04:12;;;;;;;25.75;12.82;;;5.80;99.90;;;;;;5057712;28;25111;-74
2023/02/23 01:06:41;;;;;;;22.35;11.32;;;5.80;99.90;;;;;;5057757;28;25074;-74
2023/02/23 01:09:12;;;;;;;25.77;13.02;;;5.80;99.90;;;;;;5056870;28;25085;-74
2023/02/23 01:11:40;;;;;;;26.13;13.55;;;5.90;99.90;;;;;;5057338;28;25054;-74
2023/02/23 01:14:09;;;;;;;26.95;15.00;;;5.90;99.90;;;;;;5056863;28;25092;-74
2023/02/23 01:16:37;;;;;;;27.25;13.98;;;6.00;99.90;;;;;;5057382;28;25121;-74
2023/02/23 01:19:05;;;;;;;30.92;14.52;;;6.00;99.90;;;;;;5056892;28;25092;-74
2023/02/23 01:21:39;;;;;;;25.25;14.40;;;6.10;99.90;;;;;;5039189;28;25096;-74
2023/02/23 01:24:09;;;;;;;28.95;13.95;;;6.20;99.90;;;;;;5056842;28;25140;-74
2023/02/23 01:26:38;;;;;;;24.77;14.35;;;6.30;99.90;;;;;;5039184;28;25077;-74
2023/02/23 01:29:17;;;;;;;26.33;14.55;;;6.30;99.90;;;;;;5056636;28;25071;-74
2023/02/23 01:31:47;;;;;;;25.25;14.82;;;6.40;99.90;;;;;;5056921;28;25092;-74
2023/02/23 01:34:14;;;;;;;32.63;17.80;;;6.50;99.90;;;;;;5057195;28;25132;-74
2023/02/23 01:36:43;;;;;;;32.45;17.75;;;6.60;99.90;;;;;;5056881;28;25100;-74
2023/02/23 01:39:16;;;;;;;35.85;17.50;;;6.60;99.90;;;;;;5038891;28;25066;-74
2023/02/23 01:41:44;;;;;;;39.75;19.55;;;6.70;99.90;;;;;;5056845;28;25071;-74
2023/02/23 01:44:14;;;;;;;40.78;22.15;;;6.70;99.90;;;;;;5056465;28;25085;-74
2023/02/23 01:46:44;;;;;;;40.40;22.45;;;6.90;99.90;;;;;;5040222;28;25060;-74
2023/02/23 01:49:18;;;;;;;43.55;22.23;;;7.00;99.90;;;;;;5055816;28;25068;-74
2023/02/23 01:52:06;;;;;;;44.53;24.27;;;7.10;99.90;;;;;;5057586;28;25069;-74
2023/02/23 01:54:42;;;;;;;50.05;24.10;;;7.20;99.90;;;;;;5056399;28;25077;-74
2023/02/23 01:57:13;;;;;;;44.15;22.88;;;7.30;99.90;;;;;;5056344;28;25069;-74
2023/02/23 01:59:47;;;;;;;40.40;22.67;;;7.40;99.90;;;;;;5055918;28;25069;-74
2023/02/23 02:02:20;;;;;;;43.08;22.27;;;7.40;99.90;;;;;;5056041;28;25095;-74
2023/02/23 02:04:50;;;;;;;46.30;24.63;;;7.50;99.90;;;;;;5038634;28;25123;-74
2023/02/23 02:07:27;;;;;;;43.53;23.83;;;7.50;99.90;;;;;;5056695;28;25023;-74
2023/02/23 02:10:38;;;;;;;;;;;7.50;99.90;;;;;;5056641;28;25117;-74
2023/02/23 02:12:55;;;;;;;42.97;23.17;;;7.50;99.90;;;;;;5047733;28;25132;-74
2023/02/23 02:15:26;;;;;;;44.30;23.58;;;7.50;99.90;;;;;;5056712;28;25068;-74
2023/02/23 02:18:40;;;;;;;49.25;25.20;;;7.60;99.90;;;;;;5056163;28;25076;-74
2023/02/23 02:21:26;;;;;;;44.92;23.73;;;7.60;99.90;;;;;;5035850;28;25067;-74
2023/02/23 02:24:18;;;;;;;49.08;25.55;;;7.60;99.90;;;;;;5056341;28;25150;-74
2023/02/23 02:27:04;;;;;;;46.13;24.77;;;7.60;99.90;;;;;;5056256;28;25047;-74
2023/02/23 02:29:51;;;;;;;43.55;24.27;;;7.60;99.90;;;;;;5056222;28;25146;-74
2023/02/23 02:32:38;;;;;;;47.45;25.23;;;7.60;99.90;;;;;;5056256;28;25061;-74
2023/02/23 02:35:30;;;;;;;42.25;23.17;;;7.60;99.90;;;;;;5055973;28;25075;-74
2023/02/23 02:38:15;;;;;;;42.72;23.75;;;7.60;99.90;;;;;;5056170;28;25055;-74
2023/02/23 02:40:59;;;;;;;41.03;22.73;;;7.60;99.90;;;;;;5056355;28;25058;-74
2023/02/23 02:43:49;;;;;;;40.15;24.30;;;7.60;99.90;;;;;;5055772;28;25062;-74
2023/02/23 02:46:23;;;;;;;47.03;24.67;;;7.50;99.90;;;;;;5038460;28;25123;-74
2023/02/23 02:48:59;;;;;;;42.83;24.70;;;7.50;99.90;;;;;;5055819;28;25064;-74
2023/02/23 02:51:38;;;;;;;;;;;7.50;99.90;;;;;;5056795;28;25114;-74
2023/02/23 02:54:15;;;;;;;51.97;26.33;;;7.50;99.90;;;;;;5038038;28;25114;-74
2023/02/23 02:56:46;;;;;;;49.05;27.40;;;7.50;99.90;;;;;;5056062;28;25079;-74
2023/02/23 04:19:19;;;;;;;77.70;36.22;;;7.90;99.90;;;;;;5058214;28;25089;-74
2023/02/23 04:21:46;;;;;;;75.63;38.30;;;7.90;99.90;;;;;;5040399;28;25076;-74
2023/02/23 04:24:14;;;;;;;80.63;38.65;;;7.90;99.90;;;;;;5039433;28;25063;-74
2023/02/23 04:26:42;;;;;;;75.05;38.17;;;7.90;99.90;;;;;;5040565;28;25072;-75
2023/02/23 04:29:14;;;;;;;82.47;38.83;;;7.90;99.90;;;;;;5057978;28;25140;-74
2023/02/23 04:31:42;;;;;;;75.97;37.72;;;7.90;99.90;;;;;;5058115;28;25058;-74
2023/02/23 04:34:09;;;;;;;78.20;38.38;;;7.90;99.90;;;;;;5058416;28;25068;-74
2023/02/23 04:36:37;;;;;;;76.63;38.83;;;8.00;99.90;;;;;;5040033;28;25091;-74
2023/02/23 04:39:05;;;;;;;82.88;38.97;;;8.00;99.90;;;;;;5040204;28;25115;-75
2023/02/23 04:41:33;;;;;;;84.50;40.55;;;8.00;99.90;;;;;;5057610;28;25084;-74
2023/02/23 04:44:00;;;;;;;86.00;39.55;;;8.00;99.90;;;;;;5057543;28;25077;-74
2023/02/23 04:46:28;;;;;;;85.00;41.38;;;8.00;99.90;;;;;;5039857;28;25079;-74
2023/02/23 04:48:55;;;;;;;85.32;39.28;;;8.00;99.90;;;;;;5057662;28;25109;-74
2023/02/23 04:51:22;;;;;;;85.05;41.03;;;8.00;99.90;;;;;;5057708;28;25080;-74
2023/02/23 04:53:49;;;;;;;83.78;39.28;;;8.00;99.90;;;;;;5057373;28;25117;-74
2023/02/23 04:56:16;;;;;;;84.60;38.47;;;7.90;99.90;;;;;;5057359;28;25061;-74
2023/02/23 04:58:44;;;;;;;87.90;42.05;;;7.90;99.90;;;;;;5057491;28;25051;-74
2023/02/23 05:01:11;;;;;;;85.90;41.70;;;7.90;99.90;;;;;;5040160;28;25148;-74
2023/02/23 05:03:38;;;;;;;89.57;38.90;;;7.90;99.90;;;;;;5039453;28;25109;-74
2023/02/23 05:06:06;;;;;;;84.05;41.65;;;7.80;99.90;;;;;;5039477;28;25104;-74
2023/02/23 05:08:33;;;;;;;97.80;41.17;;;7.80;99.90;;;;;;5057119;28;25093;-74
2023/02/23 05:11:00;;;;;;;96.43;44.25;;;7.70;99.90;;;;;;5057231;28;25060;-74
2023/02/23 05:13:28;;;;;;;90.88;42.78;;;7.70;99.90;;;;;;5056921;28;25072;-74
2023/02/23 05:15:57;;;;;;;98.85;45.65;;;7.70;99.90;;;;;;5057295;28;25115;-75
2023/02/23 05:18:26;;;;;;;101.45;44.72;;;7.70;99.90;;;;;;5039258;28;25063;-74
2023/02/23 05:21:02;;;;;;;93.70;41.22;;;7.70;99.90;;;;;;5057434;28;25047;-74
2023/02/23 05:23:30;;;;;;;93.93;42.60;;;7.70;99.90;;;;;;5057478;28;25105;-74
2023/02/23 05:26:04;;;;;;;101.32;45.25;;;7.70;99.90;;;;;;5057348;28;25101;-74
2023/02/23 05:28:33;;;;;;;95.85;41.83;;;7.70;99.90;;;;;;5056631;28;25113;-74
2023/02/23 05:31:02;;;;;;;92.60;42.80;;;7.60;99.90;;;;;;5039059;28;25075;-75
2023/02/23 05:33:41;;;;;;;98.47;43.60;;;7.70;99.90;;;;;;5058139;28;25100;-74
2023/02/23 05:36:10;;;;;;;106.70;44.20;;;7.60;99.90;;;;;;5056885;28;25072;-74
2023/02/23 05:38:39;;;;;;;104.20;46.72;;;7.60;99.90;;;;;;5056587;28;25086;-74
2023/02/23 05:41:14;;;;;;;109.53;45.15;;;7.60;99.90;;;;;;5056562;28;25058;-74
2023/02/23 05:43:42;;;;;;;105.28;46.30;;;7.60;99.90;;;;;;5038870;28;25093;-74
2023/02/23 05:46:19;;;;;;;116.97;48.00;;;7.60;99.90;;;;;;5056214;28;25049;-74
2023/02/23 05:48:46;;;;;;;103.80;46.15;;;7.60;99.90;;;;;;5038666;28;25080;-74
2023/02/23 05:51:15;;;;;;;112.63;48.67;;;7.60;99.90;;;;;;5038678;28;25076;-74
2023/02/23 05:53:45;;;;;;;108.53;46.90;;;7.60;99.90;;;;;;5056349;28;25134;-74
2023/02/23 05:56:19;;;;;;;108.50;46.03;;;7.60;99.90;;;;;;5056635;28;25166;-74
2023/02/23 05:58:52;;;;;;;109.97;46.08;;;7.60;99.90;;;;;;5056224;28;25099;-76
2023/02/23 06:01:21;;;;;;;107.97;46.63;;;7.60;99.90;;;;;;5056529;28;25144;-74
2023/02/23 06:03:49;;;;;;;105.28;44.92;;;7.60;99.90;;;;;;5056252;28;25060;-74
2023/02/23 06:06:17;;;;;;;111.28;46.70;;;7.60;99.90;;;;;;5056374;28;25080;-75
2023/02/23 06:08:45;;;;;;;108.07;46.15;;;7.60;99.90;;;;;;5055955;28;25072;-74
2023/02/23 06:11:12;;;;;;;107.65;45.05;;;7.60;99.90;;;;;;5056175;28;25067;-74
2023/02/23 06:13:40;;;;;;;97.93;44.88;;;7.70;99.90;;;;;;5056062;28;25069;-74
2023/02/23 06:16:08;;;;;;;113.18;46.55;;;7.60;99.90;;;;;;5038530;28;25062;-74
2023/02/23 06:18:35;;;;;;;102.60;48.05;;;7.60;99.90;;;;;;5055973;28;25072;-74
2023/02/23 06:21:04;;;;;;;105.05;46.88;;;7.70;99.90;;;;;;5056092;28;25115;-74
2023/02/23 06:23:32;;;;;;;107.32;46.85;;;7.60;99.90;;;;;;5056106;28;25127;-74
2023/02/23 06:26:01;;;;;;;105.18;45.03;;;7.60;99.90;;;;;;5038505;28;25133;-74
2023/02/23 06:28:28;;;;;;;103.90;46.42;;;7.60;99.90;;;;;;5038203;28;25070;-74
2023/02/23 06:30:55;;;;;;;112.25;44.35;;;7.60;99.90;;;;;;5056362;28;25103;-74
2023/02/23 06:33:23;;;;;;;111.00;46.45;;;7.60;99.90;;;;;;5056296;28;25128;-74
2023/02/23 06:35:51;;;;;;;113.72;47.50;;;7.60;99.90;;;;;;5056095;28;25066;-74
2023/02/23 06:38:19;;;;;;;117.50;45.58;;;7.60;99.90;;;;;;5055888;28;25062;-74
2023/02/23 06:40:47;;;;;;;114.45;45.80;;;7.60;99.90;;;;;;5055895;28;25099;-74
2023/02/23 06:43:15;;;;;;;96.22;42.83;;;7.60;99.90;;;;;;5038071;28;25077;-74
2023/02/23 06:45:50;;;;;;;101.55;46.13;;;7.60;99.90;;;;;;5038115;28;25067;-74
2023/02/23 06:48:18;;;;;;;106.95;46.60;;;7.60;99.90;;;;;;5059368;28;25073;-74
2023/02/23 06:50:48;;;;;;;104.20;46.28;;;7.60;99.90;;;;;;5043289;28;25068;-74
2023/02/23 06:53:15;;;;;;;113.20;45.78;;;7.60;99.90;;;;;;5059665;28;25069;-74
2023/02/23 06:55:41;;;;;;;101.15;44.97;;;7.60;99.90;;;;;;5041964;28;25061;-73
2023/02/23 06:58:09;;;;;;;109.38;46.08;;;7.60;99.90;;;;;;5060020;28;25062;-75
2023/02/23 07:00:36;;;;;;;106.70;44.47;;;7.60;99.90;;;;;;5059694;28;25104;-72
2023/02/23 07:03:04;;;;;;;102.80;46.22;;;7.60;99.90;;;;;;5059825;28;25062;-76
2023/02/23 07:05:31;;;;;;;109.82;44.97;;;7.60;99.90;;;;;;5041229;28;25092;-79
2023/02/23 07:07:58;;;;;;;103.50;45.83;;;7.70;99.90;;;;;;5059624;28;25122;-84
2023/02/23 07:10:26;;;;;;;103.43;44.90;;;7.70;99.90;;;;;;5057601;28;25081;-80
2023/02/23 07:12:53;;;;;;;100.05;43.38;;;7.70;99.90;;;;;;5058304;28;25059;-87
2023/02/23 07:15:21;;;;;;;89.22;42.22;;;7.70;99.90;;;;;;5058311;28;25061;-86
2023/02/23 07:17:50;;;;;;;93.78;41.65;;;7.70;99.90;;;;;;5058322;28;25059;-84
2023/02/23 07:20:18;;;;;;;99.22;43.33;;;7.80;99.90;;;;;;5059759;28;25097;-83
2023/02/23 07:22:46;;;;;;;103.20;42.88;;;7.70;99.90;;;;;;5058574;28;25051;-91
2023/02/23 07:25:13;;;;;;;93.13;41.20;;;7.80;99.90;;;;;;5058435;28;25048;-86
2023/02/23 07:27:41;;;;;;;94.57;43.00;;;7.80;99.90;;;;;;5058140;28;25127;-87
2023/02/23 07:30:09;;;;;;;89.80;41.35;;;7.80;99.90;;;;;;5058200;28;25054;-85
2023/02/23 07:32:36;;;;;;;98.88;43.15;;;7.80;99.90;;;;;;5058071;28;25124;-89
2023/02/23 07:35:05;;;;;;;96.00;41.53;;;7.90;99.90;;;;;;5058098;28;25116;-84
2023/02/23 07:37:33;;;;;;;86.07;41.30;;;7.90;99.90;;;;;;5058124;28;25105;-85
2023/02/23 07:40:00;;;;;;;90.60;42.05;;;8.00;99.90;;;;;;5059108;28;25050;-83
2023/02/23 07:42:31;;;;;;;89.82;41.60;;;8.00;99.90;;;;;;5057831;28;25099;-89
2023/02/23 07:44:59;;;;;;;86.68;41.20;;;8.00;99.90;;;;;;5057888;28;25077;-83
2023/02/23 07:47:38;;;;;;;82.78;39.78;;;8.00;99.90;;;;;;5057719;28;25132;-88
2023/02/23 07:50:08;;;;;;;87.18;42.03;;;8.10;99.90;;;;;;5057681;28;25125;-72
2023/02/23 07:52:37;;;;;;;81.43;40.97;;;8.10;99.90;;;;;;5058521;28;25058;-72
2023/02/23 07:55:05;;;;;;;83.90;41.10;;;8.10;99.90;;;;;;5058633;28;25093;-71
2023/02/23 07:57:33;;;;;;;84.20;41.67;;;8.10;99.90;;;;;;5057897;28;25137;-72
2023/02/23 08:00:00;;;;;;;78.78;39.55;;;8.10;99.90;;;;;;5056677;28;25158;-72
2023/02/23 08:02:31;;;;;;;76.97;38.67;;;8.10;99.90;;;;;;5058664;28;25109;-74
2023/02/23 08:04:58;;;;;;;78.00;39.05;;;8.10;99.90;;;;;;5058924;28;25068;-72
2023/02/23 08:07:25;;;;;;;83.55;41.90;;;8.20;99.90;;;;;;5058477;28;25094;-71
2023/02/23 08:09:53;;;;;;;74.40;38.83;;;8.20;99.90;;;;;;5058114;28;25147;-72
2023/02/23 08:12:20;;;;;;;70.25;36.42;;;8.20;99.90;;;;;;5058167;28;25076;-72
2023/02/23 08:14:47;;;;;;;78.15;39.45;;;8.20;99.90;;;;;;5058453;28;25062;-72
2023/02/23 08:17:15;;;;;;;66.75;35.85;;;8.20;99.90;;;;;;5058071;28;25064;-73
2023/02/23 08:19:42;;;;;;;67.05;37.15;;;8.20;99.90;;;;;;5058083;28;25083;-74
2023/02/23 08:22:09;;;;;;;71.90;36.97;;;8.20;99.90;;;;;;5040225;28;25073;-72
2023/02/23 08:24:37;;;;;;;69.50;35.03;;;8.30;99.90;;;;;;5040425;28;25089;-72
2023/02/23 08:27:04;;;;;;;65.38;35.22;;;8.30;99.90;;;;;;5057746;28;25114;-72
2023/02/23 08:29:33;;;;;;;62.83;33.97;;;8.30;99.90;;;;;;5057826;28;25070;-73
2023/02/23 08:32:05;;;;;;;66.90;35.85;;;8.30;99.90;;;;;;5057831;28;25069;-73
2023/02/23 08:34:37;;;;;;;66.63;34.75;;;8.30;99.90;;;;;;5057926;28;25067;-72
2023/02/23 08:37:05;;;;;;;69.63;35.83;;;8.30;99.90;;;;;;5057677;28;25049;-73
2023/02/23 08:39:32;;;;;;;66.45;35.15;;;8.30;99.90;;;;;;5057721;28;25066;-72
2023/02/23 08:42:00;;;;;;;71.80;35.65;;;8.40;99.90;;;;;;5058170;28;25092;-73
2023/02/23 08:44:27;;;;;;;64.50;33.60;;;8.40;99.90;;;;;;5057715;28;25091;-72
2023/02/23 08:46:57;;;;;;;64.95;35.55;;;8.40;99.90;;;;;;5057464;28;25080;-77
2023/02/23 08:49:25;;;;;;;68.15;37.05;;;8.40;99.90;;;;;;5057972;28;25113;-71
2023/02/23 08:51:53;;;;;;;64.70;34.33;;;8.40;99.90;;;;;;5057425;28;25135;-71
2023/02/23 08:54:21;;;;;;;66.30;35.13;;;8.40;99.90;;;;;;5040029;28;25109;-71
2023/02/23 08:56:50;;;;;;;63.63;35.97;;;8.40;99.90;;;;;;5057346;28;25062;-72
2023/02/23 08:59:18;;;;;;;63.33;34.72;;;8.30;99.90;;;;;;5039599;28;25070;-72
2023/02/23 09:01:46;;;;;;;66.72;35.05;;;8.30;99.90;;;;;;5057236;28;25068;-71
2023/02/23 09:04:14;;;;;;;64.18;33.10;;;8.40;99.90;;;;;;5057925;28;25053;-72
2023/02/23 09:06:41;;;;;;;66.97;37.42;;;8.40;99.90;;;;;;5039478;28;25109;-72
2023/02/23 09:09:08;;;;;;;72.40;37.35;;;8.30;99.90;;;;;;5056621;28;25063;-72
2023/02/23 09:11:36;;;;;;;67.53;36.40;;;8.40;99.90;;;;;;5039574;28;25089;-72
2023/02/23 09:14:09;;;;;;;66.80;35.55;;;8.40;99.90;;;;;;5057082;28;25074;-72
2023/02/23 09:16:36;;;;;;;65.43;35.15;;;8.40;99.90;;;;;;5038747;28;25058;-72
2023/02/23 09:19:03;;;;;;;63.47;36.17;;;8.50;99.90;;;;;;5039322;28;25048;-73
2023/02/23 09:21:33;;;;;;;65.70;34.83;;;8.50;99.90;;;;;;5057210;28;25060;-72
2023/02/23 09:24:01;;;;;;;61.20;34.47;;;8.60;99.90;;;;;;5057038;28;25077;-72
2023/02/23 09:26:28;;;;;;;61.47;34.10;;;8.60;99.90;;;;;;5039129;28;25061;-72
2023/02/23 09:28:58;;;;;;;56.20;32.42;;;8.60;99.90;;;;;;5056629;28;25070;-73
2023/02/23 09:31:25;;;;;;;57.90;33.05;;;8.70;99.90;;;;;;5039095;28;24990;-74
2023/02/23 09:33:53;;;;;;;52.70;32.47;;;8.70;99.90;;;;;;5056721;28;25150;-72
2023/02/23 09:36:24;;;;;;;58.63;33.03;;;8.80;99.90;;;;;;5057206;28;25056;-74
2023/02/23 09:38:55;;;;;;;57.80;32.28;;;8.80;99.90;;;;;;5038869;28;25065;-73
2023/02/23 09:41:29;;;;;;;51.00;29.50;;;8.90;99.90;;;;;;5056423;28;25083;-71
2023/02/23 09:44:06;;;;;;;50.25;29.50;;;8.90;99.90;;;;;;5056986;28;25098;-72
2023/02/23 09:46:46;;;;;;;51.13;29.92;;;9.00;99.90;;;;;;5056788;28;25084;-72
2023/02/23 09:49:17;;;;;;;48.78;29.02;;;9.00;99.90;;;;;;5056749;28;25074;-72
2023/02/23 09:51:56;;;;;;;42.58;26.75;;;9.10;99.90;;;;;;5056423;28;25094;-71
2023/02/23 09:54:30;;;;;;;39.65;25.45;;;9.10;99.90;;;;;;5056361;28;25067;-75
2023/02/23 09:57:02;;;;;;;40.03;25.52;;;9.20;99.90;;;;;;5038600;28;25072;-74
2023/02/23 09:59:30;;;;;;;41.80;24.80;;;9.20;99.90;;;;;;5038588;28;25055;-72
2023/02/23 10:02:18;;;;;;;39.72;25.75;;;9.30;99.90;;;;;;5056256;28;25134;-75
2023/02/23 10:04:48;;;;;;;34.63;22.63;;;9.30;99.90;;;;;;5038680;28;25064;-72
2023/02/23 10:07:20;;;;;;;30.63;21.13;;;9.30;99.90;;;;;;5056129;28;25090;-71
2023/02/23 10:09:59;;;;;;;36.47;22.85;;;9.30;99.90;;;;;;5048618;28;25112;-73
2023/02/23 10:12:54;;;;;;;32.70;21.65;;;9.40;99.90;;;;;;5056209;28;25069;-73
2023/02/23 10:15:48;;;;;;;30.90;20.40;;;9.40;99.90;;;;;;5047539;28;25093;-72
2023/02/23 10:18:31;;;;;;;29.42;20.10;;;9.40;99.90;;;;;;5056396;28;25124;-73
2023/02/23 10:21:03;;;;;;;29.20;19.30;;;9.30;99.90;;;;;;5056717;28;25123;-72
2023/02/23 10:23:40;;;;;;;28.45;19.63;;;9.30;99.90;;;;;;5060465;28;25058;-72
2023/02/23 10:26:15;;;;;;;29.05;18.92;;;9.40;99.90;;;;;;5059119;28;25146;-72
2023/02/23 10:28:44;;;;;;;28.15;19.15;;;9.40;99.90;;;;;;5059002;28;25078;-72
2023/02/23 10:31:41;;;;;;;26.70;18.27;;;9.40;99.90;;;;;;5060119;28;25066;-75
2023/02/23 10:34:19;;;;;;;27.80;19.17;;;9.40;99.90;;;;;;5053438;28;25057;-72
2023/02/23 10:37:04;;;;;;;28.60;19.45;;;9.50;99.90;;;;;;5058959;28;25142;-71
2023/02/23 10:39:33;;;;;;;24.02;16.90;;;9.50;99.90;;;;;;5060017;28;25090;-74
2023/02/23 10:42:06;;;;;;;27.55;18.27;;;9.60;99.90;;;;;;5059997;28;25058;-72
2023/02/23 10:44:33;;;;;;;26.17;18.92;;;9.60;99.90;;;;;;5060081;28;25110;-73
2023/02/23 10:47:19;;;;;;;24.85;17.30;;;9.70;99.90;;;;;;5058702;28;25063;-73
2023/02/23 10:49:55;;;;;;;25.20;18.73;;;9.70;99.90;;;;;;5059998;28;25089;-73
2023/02/23 10:52:40;;;;;;;25.40;19.00;;;9.80;99.90;;;;;;5058725;28;25060;-73
2023/02/23 10:55:28;;;;;;;25.35;17.73;;;9.80;99.90;;;;;;5058661;28;25057;-73
2023/02/23 10:58:04;;;;;;;25.75;18.25;;;9.80;99.90;;;;;;5059670;28;25139;-72
2023/02/23 11:00:35;;;;;;;24.38;17.48;;;9.80;99.90;;;;;;5060338;28;25063;-71
2023/02/23 11:03:21;;;;;;;24.48;18.02;;;9.80;99.90;;;;;;5060106;28;25069;-71
2023/02/23 11:05:51;;;;;;;33.58;21.95;;;9.80;99.90;;;;;;5059525;28;25072;-71
2023/02/23 11:08:24;;;;;;;52.80;35.85;;;9.80;99.90;;;;;;5059094;28;25085;-71
2023/02/23 11:11:24;;;;;;;26.17;18.35;;;9.80;99.90;;;;;;5041900;28;25052;-72
2023/02/23 11:13:51;;;;;;;24.85;17.23;;;9.70;99.90;;;;;;5059177;28;25110;-72
2023/02/23 11:16:25;;;;;;;27.73;18.30;;;9.70;99.90;;;;;;5041486;28;25118;-76
2023/02/23 11:19:02;;;;;;;26.63;18.13;;;9.60;99.90;;;;;;5059688;28;25052;-74
2023/02/23 11:21:39;;;;;;;31.85;21.38;;;9.60;99.90;;;;;;5059080;28;25077;-72
2023/02/23 11:24:25;;;;;;;29.23;19.70;;;9.60;99.90;;;;;;5059187;28;25045;-73
2023/02/23 11:27:05;;;;;;;32.47;21.42;;;9.50;99.90;;;;;;5059077;28;25118;-73
2023/02/23 11:29:38;;;;;;;31.80;21.42;;;9.50;99.90;;;;;;5059397;28;25094;-72
2023/02/23 11:32:20;;;;;;;34.90;21.98;;;9.40;99.90;;;;;;5058676;28;25096;-72
2023/02/23 11:35:08;;;;;;;35.08;22.77;;;9.30;99.90;;;;;;5059537;28;25093;-73
2023/02/23 11:37:36;;;;;;;32.95;21.52;;;9.30;99.90;;;;;;5059285;28;25057;-72
2023/02/23 11:40:26;;;;;;;30.85;19.40;;;9.30;99.90;;;;;;5059583;28;25061;-72
2023/02/23 11:43:08;;;;;;;28.70;18.35;;;9.30;99.90;;;;;;5041120;28;25060;-74
2023/02/23 11:45:55;;;;;;;27.13;17.83;;;9.30;99.90;;;;;;5058801;28;25072;-71
2023/02/23 11:48:54;;;;;;;26.45;17.45;;;9.30;99.90;;;;;;5058900;28;25072;-72
2023/02/23 11:51:34;;;;;;;23.40;15.77;;;9.30;99.90;;;;;;5058883;28;25076;-72
2023/02/23 11:54:04;;;;;;;26.23;16.80;;;9.30;99.90;;;;;;5058583;28;25113;-72
2023/02/23 11:56:33;;;;;;;28.35;17.83;;;9.30;99.90;;;;;;5058524;28;25063;-73
2023/02/23 11:59:17;;;;;;;26.55;18.02;;;9.30;99.90;;;;;;5058458;28;25166;-72
2023/02/23 12:01:53;;;;;;;24.35;16.63;;;9.30;99.90;;;;;;5058800;28;25079;-73
2023/02/23 12:04:36;;;;;;;22.85;15.52;;;9.30;99.90;;;;;;5059709;28;25120;-73
2023/02/23 12:07:41;;;;;;;37.90;21.83;;;9.30;99.90;;;;;;5058263;28;25071;-73
2023/02/23 12:10:25;;;;;;;39.85;21.98;;;9.30;99.90;;;;;;5058070;28;25077;-73
2023/02/23 12:13:08;;;;;;;41.83;23.30;;;9.30;99.90;;;;;;5058209;28;25067;-73
2023/02/23 12:16:01;;;;;;;30.40;19.05;;;9.40;99.90;;;;;;5040591;28;25066;-73
2023/02/23 12:18:42;;;;;;;25.23;16.55;;;9.40;99.90;;;;;;5058419;28;25159;-72
2023/02/23 12:21:30;;;;;;;24.65;16.63;;;9.40;99.90;;;;;;5040397;28;25120;-73
2023/02/23 12:24:09;;;;;;;28.70;16.48;;;9.40;99.90;;;;;;5058404;28;25048;-72
2023/02/23 12:27:02;;;;;;;24.52;16.17;;;9.30;99.90;;;;;;5058463;28;25061;-73
2023/02/23 12:30:12;;;;;;;21.40;14.05;;;9.30;99.90;;;;;;5040923;28;25077;-72
2023/02/23 12:32:46;;;;;;;24.13;15.75;;;9.30;99.90;;;;;;5028315;28;25079;-72
2023/02/23 12:35:44;;;;;;;24.02;16.02;;;9.30;99.90;;;;;;5058306;28;25135;-72
2023/02/23 12:38:26;;;;;;;23.65;14.88;;;9.30;99.90;;;;;;5057750;28;25057;-72
2023/02/23 12:41:11;;;;;;;21.08;14.00;;;9.30;99.90;;;;;;5057981;28;25070;-72
2023/02/23 12:43:53;;;;;;;23.98;15.55;;;9.30;99.90;;;;;;5057824;28;25097;-72
2023/02/23 12:46:51;;;;;;;23.40;14.15;;;9.30;99.90;;;;;;5057391;28;25061;-72
2023/02/23 12:49:36;;;;;;;23.17;14.88;;;9.30;99.90;;;;;;5038013;28;25066;-72
2023/02/23 12:52:22;;;;;;;20.98;13.45;;;9.30;99.90;;;;;;5057538;28;25077;-72
2023/02/23 12:54:50;;;;;;;24.38;15.15;;;9.30;99.90;;;;;;5057951;28;25134;-72
2023/02/23 12:57:31;;;;;;;22.25;14.40;;;9.30;99.90;;;;;;5057685;28;25111;-72
2023/02/23 13:00:22;;;;;;;19.50;13.55;;;9.30;99.90;;;;;;5057566;28;25150;-72
2023/02/23 13:03:25;;;;;;;18.67;12.25;;;9.30;99.90;;;;;;5057232;28;25110;-72
2023/02/23 13:06:20;;;;;;;18.98;11.93;;;9.30;99.90;;;;;;5057413;28;25078;-72
2023/02/23 13:09:16;;;;;;;19.30;12.15;;;9.30;99.90;;;;;;5041000;28;25075;-72
2023/02/23 13:11:47;;;;;;;19.67;12.25;;;9.30;99.90;;;;;;5057433;28;25053;-72
2023/02/23 13:14:38;;;;;;;16.40;10.52;;;9.30;99.90;;;;;;5057387;28;25052;-72
2023/02/23 13:17:31;;;;;;;19.85;11.63;;;9.30;99.90;;;;;;5057264;28;25095;-72
2023/02/23 13:20:15;;;;;;;20.40;13.18;;;9.30;99.90;;;;;;5057267;28;25061;-72
2023/02/23 13:23:23;;;;;;;23.00;14.20;;;9.20;99.90;;;;;;5057246;28;25146;-72
2023/02/23 13:26:29;;;;;;;20.05;12.88;;;9.20;99.90;;;;;;5057368;28;25054;-72
2023/02/23 13:29:24;;;;;;;22.15;13.30;;;9.10;99.90;;;;;;5056987;28;25070;-72
2023/02/23 13:31:53;;;;;;;22.05;13.98;;;9.10;99.90;;;;;;5057319;28;25076;-72
2023/02/23 13:34:38;;;;;;;21.15;13.23;;;9.00;99.90;;;;;;5056902;28;25052;-71
2023/02/23 13:37:07;;;;;;;22.15;13.77;;;9.00;99.90;;;;;;5057240;28;25059;-74
2023/02/23 13:40:02;;;;;;;20.13;12.75;;;9.00;99.90;;;;;;5055589;28;25106;-72
2023/02/23 13:42:55;;;;;;;23.52;13.38;;;8.90;99.90;;;;;;5056686;28;25107;-72
2023/02/23 13:45:59;;;;;;;25.10;13.88;;;8.90;99.90;;;;;;5056610;28;25058;-72
2023/02/23 13:48:45;;;;;;;22.08;13.93;;;8.90;99.90;;;;;;5056749;28;25107;-72
2023/02/23 13:51:16;;;;;;;25.38;15.55;;;8.90;99.90;;;;;;5057124;28;25135;-72
2023/02/23 13:54:05;;;;;;;21.92;13.43;;;8.90;99.90;;;;;;5055592;28;25055;-72
2023/02/23 13:56:42;;;;;;;24.20;14.48;;;8.90;99.90;;;;;;5056415;28;25096;-72
2023/02/23 13:59:17;;;;;;;24.67;13.70;;;8.90;99.90;;;;;;5056358;28;25046;-72
2023/02/23 14:01:49;;;;;;;23.98;14.63;;;8.90;99.90;;;;;;5056673;28;25099;-72
2023/02/23 14:04:28;;;;;;;23.58;13.40;;;8.90;99.90;;;;;;5056816;28;25060;-72
2023/02/23 14:07:03;;;;;;;24.98;13.75;;;9.00;99.90;;;;;;5055148;28;25069;-72
2023/02/23 14:09:37;;;;;;;22.48;13.77;;;9.00;99.90;;;;;;5056254;28;25082;-72
2023/02/23 14:12:15;;;;;;;23.13;13.30;;;9.00;99.90;;;;;;5056258;28;25058;-72
2023/02/23 14:14:45;;;;;;;23.15;13.30;;;9.00;99.90;;;;;;5056403;28;25056;-72
2023/02/23 14:17:19;;;;;;;23.52;13.50;;;8.90;99.90;;;;;;5056169;28;25051;-72
2023/02/23 14:20:38;;;;;;;25.00;14.05;;;8.90;99.90;;;;;;5056465;28;25057;-72
2023/02/23 14:23:19;;;;;;;26.98;13.82;;;8.90;99.90;;;;;;4956284;29;25128;-72
2023/02/23 14:25:51;;;;;;;26.13;14.77;;;8.80;99.90;;;;;;5030485;28;25087;-72
2023/02/23 14:28:31;;;;;;;28.73;14.85;;;8.80;99.90;;;;;;5038255;28;25098;-72
2023/02/23 14:31:24;;;;;;;26.58;14.23;;;8.80;99.90;;;;;;5056305;28;25071;-72
2023/02/23 14:34:02;;;;;;;25.08;13.10;;;8.80;99.90;;;;;;5056784;28;25071;-72